createdAt,value
2023-01-19T00:00:23.475Z,38.25
2023-01-19T00:02:51.672Z,27.50
2023-01-19T00:05:19.454Z,35.28
2023-01-19T00:07:46.998Z,26.52
2023-01-19T00:10:14.515Z,28.35
2023-01-19T00:12:42.549Z,29.50
2023-01-19T00:15:10.759Z,30.08
2023-01-19T00:17:41.180Z,28.08
2023-01-19T00:20:09.934Z,30.73
2023-01-19T00:22:37.465Z,28.13
2023-01-19T00:25:05.350Z,31.95
2023-01-19T00:27:35.079Z,26.65
2023-01-19T00:32:30.601Z,28.10
2023-01-19T00:34:58.077Z,26.80
2023-01-19T00:37:25.589Z,26.23
2023-01-19T00:39:53.303Z,30.13
2023-01-19T00:42:39.555Z,32.15
2023-01-19T00:45:12.945Z,34.17
2023-01-19T00:47:41.138Z,33.58
2023-01-19T00:50:11.890Z,28.13
2023-01-19T00:52:41.142Z,29.70
2023-01-19T00:55:11.560Z,28.38
2023-01-19T00:57:40.525Z,37.17
2023-01-19T01:00:11.823Z,32.78
2023-01-19T01:02:41.169Z,32.35
2023-01-19T01:05:09.611Z,32.28
2023-01-19T01:07:41.230Z,30.05
2023-01-19T01:10:10.703Z,28.05
2023-01-19T01:12:39.280Z,30.98
2023-01-19T01:15:10.282Z,28.67
2023-01-19T01:17:47.678Z,28.90
2023-01-19T01:20:23.869Z,28.42
2023-01-19T01:22:53.878Z,28.00
2023-01-19T01:25:23.812Z,29.75
2023-01-19T01:27:51.777Z,33.10
2023-01-19T01:30:20.283Z,30.42
2023-01-19T01:32:48.688Z,31.75
2023-01-19T01:35:17.260Z,35.72
2023-01-19T01:37:45.609Z,30.92
2023-01-19T01:40:15.789Z,32.90
2023-01-19T01:42:44.279Z,28.00
2023-01-19T01:45:30.317Z,31.70
2023-01-19T01:48:22.442Z,33.30
2023-01-19T01:51:26.142Z,33.58
2023-01-19T01:53:56.645Z,31.58
2023-01-19T01:56:27.874Z,30.83
2023-01-19T01:58:55.653Z,40.38
2023-01-19T02:01:41.758Z,34.75
2023-01-19T02:04:09.605Z,30.30
2023-01-19T02:06:56.461Z,32.97
2023-01-19T02:09:45.143Z,29.52
2023-01-19T02:12:31.990Z,27.97
2023-01-19T02:14:59.518Z,28.50
2023-01-19T02:17:27.252Z,27.58
2023-01-19T02:19:54.958Z,31.45
2023-01-19T02:22:36.086Z,26.23
2023-01-19T02:25:05.514Z,26.95
2023-01-19T02:27:34.107Z,32.47
2023-01-19T02:30:03.805Z,31.60
2023-01-19T02:32:31.688Z,30.83
2023-01-19T02:34:59.543Z,33.67
2023-01-19T02:37:31.415Z,32.33
2023-01-19T02:40:02.811Z,39.05
2023-01-19T02:42:36.536Z,33.53
2023-01-19T02:45:09.664Z,28.83
2023-01-19T02:47:39.998Z,32.42
2023-01-19T02:53:02.067Z,31.08
2023-01-19T02:55:32.321Z,32.25
2023-01-19T02:58:22.334Z,24.38
2023-01-19T03:01:02.922Z,29.85
2023-01-19T03:03:40.599Z,25.92
2023-01-19T03:06:27.403Z,25.70
2023-01-19T03:09:41.491Z,28.42
2023-01-19T03:12:22.520Z,25.25
2023-01-19T03:14:51.995Z,30.70
2023-01-19T03:17:20.533Z,26.80
2023-01-19T03:19:50.687Z,29.63
2023-01-19T03:22:29.539Z,26.77
2023-01-19T03:25:01.037Z,25.20
2023-01-19T03:27:40.687Z,24.08
2023-01-19T03:30:13.244Z,26.42
2023-01-19T03:32:50.430Z,29.65
2023-01-19T03:35:20.650Z,24.40
2023-01-19T03:37:50.766Z,23.65
2023-01-19T03:40:18.773Z,24.73
2023-01-19T03:42:49.004Z,26.15
2023-01-19T03:45:17.405Z,25.42
2023-01-19T03:47:45.375Z,27.45
2023-01-19T03:50:30.289Z,26.85
2023-01-19T03:53:07.082Z,29.42
2023-01-19T03:55:37.648Z,25.92
2023-01-19T03:58:05.729Z,27.23
2023-01-19T04:00:34.009Z,22.67
2023-01-19T04:03:01.969Z,30.75
2023-01-19T04:05:30.593Z,35.08
2023-01-19T04:07:58.428Z,26.73
2023-01-19T04:10:26.040Z,32.65
2023-01-19T04:12:58.335Z,29.55
2023-01-19T04:15:26.776Z,32.28
2023-01-19T04:17:54.697Z,24.40
2023-01-19T04:20:22.279Z,30.70
2023-01-19T04:22:49.905Z,29.92
2023-01-19T04:25:17.548Z,29.98
2023-01-19T04:27:45.056Z,26.88
2023-01-19T04:30:13.019Z,28.40
2023-01-19T04:32:41.153Z,29.55
2023-01-19T04:35:08.686Z,32.05
2023-01-19T04:37:36.275Z,28.50
2023-01-19T04:40:04.508Z,31.95
2023-01-19T04:42:32.505Z,21.98
2023-01-19T04:45:01.248Z,22.92
2023-01-19T04:47:29.102Z,24.23
2023-01-19T04:49:56.672Z,23.98
2023-01-19T04:52:25.759Z,28.63
2023-01-19T04:54:53.296Z,28.85
2023-01-19T04:57:20.765Z,25.55
2023-01-19T04:59:48.835Z,25.80
2023-01-19T05:02:16.516Z,24.80
2023-01-19T05:04:44.034Z,25.40
2023-01-19T05:07:11.671Z,20.90
2023-01-19T05:09:39.164Z,23.15
2023-01-19T05:12:06.740Z,21.90
2023-01-19T05:14:34.416Z,25.85
2023-01-19T05:17:03.346Z,27.40
2023-01-19T05:19:31.489Z,22.58
2023-01-19T05:21:59.033Z,24.83
2023-01-19T05:24:26.615Z,27.83
2023-01-19T05:26:54.368Z,23.42
2023-01-19T05:29:22.123Z,25.10
2023-01-19T05:31:49.906Z,22.70
2023-01-19T05:34:17.940Z,21.42
2023-01-19T05:36:45.446Z,22.05
2023-01-19T05:39:14.208Z,24.60
2023-01-19T05:41:47.843Z,25.20
2023-01-19T05:44:15.632Z,26.63
2023-01-19T05:46:43.257Z,23.85
2023-01-19T05:49:12.241Z,23.98
2023-01-19T05:51:40.547Z,21.15
2023-01-19T05:54:08.962Z,24.75
2023-01-19T05:56:39.426Z,28.27
2023-01-19T05:59:07.240Z,22.80
2023-01-19T06:01:39.826Z,30.70
2023-01-19T06:04:07.732Z,24.90
2023-01-19T06:06:36.054Z,26.00
2023-01-19T06:09:03.791Z,24.92
2023-01-19T06:11:31.433Z,29.60
2023-01-19T06:13:58.912Z,24.25
2023-01-19T06:16:26.646Z,21.35
2023-01-19T06:18:54.157Z,19.45
2023-01-19T06:21:21.929Z,27.35
2023-01-19T06:23:49.759Z,21.60
2023-01-19T06:26:17.415Z,23.33
2023-01-19T06:28:44.958Z,24.25
2023-01-19T06:31:12.744Z,25.42
2023-01-19T06:33:40.469Z,22.40
2023-01-19T06:36:08.694Z,20.25
2023-01-19T06:38:36.433Z,23.42
2023-01-19T06:41:04.893Z,21.48
2023-01-19T06:43:33.069Z,24.60
2023-01-19T06:46:00.933Z,23.00
2023-01-19T06:48:28.577Z,24.90
2023-01-19T06:50:58.545Z,24.85
2023-01-19T06:53:28.456Z,21.45
2023-01-19T06:56:03.079Z,21.88
2023-01-19T06:58:32.014Z,21.17
2023-01-19T07:01:06.931Z,24.10
2023-01-19T07:03:35.890Z,24.30
2023-01-19T07:06:06.685Z,28.20
2023-01-19T07:08:37.081Z,28.88
2023-01-19T07:11:30.754Z,23.23
2023-01-19T07:14:00.492Z,25.52
2023-01-19T07:16:28.317Z,27.70
2023-01-19T07:18:56.144Z,24.17
2023-01-19T07:21:24.060Z,23.40
2023-01-19T07:23:53.090Z,24.67
2023-01-19T07:26:21.719Z,21.92
2023-01-19T07:28:51.705Z,21.80
2023-01-19T07:31:19.638Z,20.75
2023-01-19T07:33:47.325Z,25.95
2023-01-19T07:36:16.549Z,19.55
2023-01-19T07:38:44.269Z,21.45
2023-01-19T07:41:25.862Z,20.88
2023-01-19T07:43:56.562Z,23.92
2023-01-19T07:46:24.678Z,21.98
2023-01-19T07:48:52.235Z,24.85
2023-01-19T07:51:22.808Z,24.90
2023-01-19T07:53:51.015Z,21.25
2023-01-19T07:56:18.877Z,26.95
2023-01-19T07:58:47.036Z,20.52
2023-01-19T08:01:16.701Z,25.15
2023-01-19T08:03:44.798Z,20.05
2023-01-19T08:06:23.859Z,22.42
2023-01-19T08:08:53.578Z,21.45
2023-01-19T08:11:21.425Z,19.45
2023-01-19T08:13:48.989Z,21.70
2023-01-19T08:16:17.374Z,18.88
2023-01-19T08:18:44.997Z,21.48
2023-01-19T08:21:13.008Z,20.80
2023-01-19T08:23:40.814Z,20.20
2023-01-19T08:26:27.616Z,15.32
2023-01-19T08:28:59.774Z,21.88
2023-01-19T08:31:31.466Z,21.40
2023-01-19T08:33:59.493Z,19.33
2023-01-19T08:36:27.459Z,25.50
2023-01-19T08:38:55.011Z,20.00
2023-01-19T08:41:22.612Z,18.75
2023-01-19T08:43:50.212Z,16.08
2023-01-19T08:49:05.351Z,18.63
2023-01-19T08:51:36.457Z,15.85
2023-01-19T08:54:06.287Z,17.58
2023-01-19T08:56:33.824Z,19.77
2023-01-19T08:59:09.303Z,20.45
2023-01-19T09:01:37.842Z,16.35
2023-01-19T09:04:05.830Z,17.33
2023-01-19T09:06:34.243Z,22.75
2023-01-19T09:09:01.835Z,18.08
2023-01-19T09:11:30.881Z,20.63
2023-01-19T09:13:59.035Z,16.70
2023-01-19T09:16:27.389Z,21.00
2023-01-19T09:18:55.038Z,18.85
2023-01-19T09:21:22.536Z,18.35
2023-01-19T09:23:52.369Z,22.83
2023-01-19T09:26:19.871Z,22.20
2023-01-19T09:28:47.392Z,16.02
2023-01-19T09:31:15.366Z,18.05
2023-01-19T09:33:42.972Z,19.83
2023-01-19T09:36:10.844Z,17.25
2023-01-19T09:38:40.833Z,16.58
2023-01-19T09:41:33.821Z,17.60
2023-01-19T09:44:01.791Z,19.90
2023-01-19T09:46:41.803Z,17.80
2023-01-19T09:49:26.702Z,13.23
2023-01-19T09:51:54.603Z,19.23
2023-01-19T09:54:27.689Z,22.38
2023-01-19T09:56:55.363Z,18.10
2023-01-19T09:59:29.657Z,17.73
2023-01-19T10:02:25.633Z,22.33
2023-01-19T10:05:27.900Z,20.17
2023-01-19T10:08:25.526Z,15.60
2023-01-19T10:10:58.167Z,15.55
2023-01-19T10:13:47.184Z,18.55
2023-01-19T10:16:31.638Z,17.42
2023-01-19T10:19:09.290Z,17.73
2023-01-19T10:21:43.342Z,20.00
2023-01-19T10:24:22.968Z,15.23
2023-01-19T10:26:52.989Z,15.70
2023-01-19T10:29:34.632Z,18.08
2023-01-19T10:32:12.657Z,18.88
2023-01-19T10:34:41.747Z,16.58
2023-01-19T10:37:18.575Z,14.15
2023-01-19T10:39:53.946Z,15.63
2023-01-19T10:42:21.694Z,15.35
2023-01-19T10:44:49.814Z,14.93
2023-01-19T10:47:20.232Z,14.02
2023-01-19T10:49:49.146Z,12.85
2023-01-19T10:52:37.619Z,13.13
2023-01-19T10:55:08.070Z,13.52
2023-01-19T10:57:39.518Z,11.75
2023-01-19T11:00:28.259Z,10.00
2023-01-19T11:02:55.843Z,17.02
2023-01-19T11:05:25.770Z,13.55
2023-01-19T11:07:53.655Z,13.77
2023-01-19T11:10:28.189Z,15.25
2023-01-19T11:13:15.846Z,13.48
2023-01-19T11:16:00.375Z,13.40
2023-01-19T11:18:30.931Z,11.60
2023-01-19T11:21:08.017Z,15.15
2023-01-19T11:27:51.568Z,13.23
2023-01-19T11:30:26.088Z,11.55
2023-01-19T11:32:54.585Z,12.13
2023-01-19T11:35:38.121Z,14.40
2023-01-19T11:38:19.216Z,11.32
2023-01-19T11:40:58.759Z,10.88
2023-01-19T11:43:43.590Z,9.52
2023-01-19T11:46:17.816Z,11.20
2023-01-19T11:49:08.488Z,18.05
2023-01-19T11:52:02.381Z,9.77
2023-01-19T11:54:35.875Z,11.13
2023-01-19T11:57:16.147Z,10.73
2023-01-19T11:59:45.171Z,9.27
2023-01-19T12:02:43.862Z,9.82
2023-01-19T12:05:17.041Z,10.50
2023-01-19T12:07:47.927Z,12.80
2023-01-19T12:10:31.773Z,11.13
2023-01-19T12:13:00.757Z,10.82
2023-01-19T12:15:34.237Z,14.25
2023-01-19T12:18:03.226Z,11.60
2023-01-19T12:20:36.727Z,11.40
2023-01-19T12:23:29.139Z,12.25
2023-01-19T12:26:02.147Z,13.30
2023-01-19T12:28:32.998Z,9.23
2023-01-19T12:31:02.813Z,13.48
2023-01-19T12:33:34.674Z,10.53
2023-01-19T12:36:07.113Z,12.68
2023-01-19T12:38:52.865Z,10.35
2023-01-19T12:41:28.157Z,12.27
2023-01-19T12:44:16.605Z,9.90
2023-01-19T12:47:08.149Z,10.55
2023-01-19T12:49:41.624Z,11.10
2023-01-19T12:52:31.148Z,13.05
2023-01-19T12:55:07.654Z,13.13
2023-01-19T12:57:40.162Z,13.30
2023-01-19T13:00:27.791Z,16.40
2023-01-19T13:03:21.387Z,17.23
2023-01-19T13:05:56.836Z,13.27
2023-01-19T13:08:30.536Z,12.23
2023-01-19T13:11:05.541Z,10.93
2023-01-19T13:13:38.071Z,10.32
2023-01-19T13:16:18.264Z,12.95
2023-01-19T13:21:28.063Z,16.67
2023-01-19T13:23:58.550Z,12.73
2023-01-19T13:26:30.975Z,10.70
2023-01-19T13:29:16.107Z,12.68
2023-01-19T13:31:44.841Z,15.05
2023-01-19T13:34:15.074Z,11.07
2023-01-19T13:36:46.550Z,10.55
2023-01-19T13:39:20.079Z,11.50
2023-01-19T13:41:49.185Z,9.60
2023-01-19T13:44:24.158Z,10.45
2023-01-19T13:46:54.290Z,11.27
2023-01-19T13:49:33.292Z,14.10
2023-01-19T13:52:30.628Z,11.55
2023-01-19T13:55:03.081Z,13.70
2023-01-19T13:57:40.864Z,14.98
2023-01-19T14:00:12.779Z,11.60
2023-01-19T14:02:40.559Z,18.52
2023-01-19T14:05:28.438Z,12.32
2023-01-19T14:08:08.945Z,14.60
2023-01-19T14:10:48.633Z,13.55
2023-01-19T14:13:20.001Z,12.32
2023-01-19T14:15:50.228Z,14.15
2023-01-19T14:18:20.044Z,12.27
2023-01-19T14:21:12.449Z,14.05
2023-01-19T14:23:47.832Z,14.88
2023-01-19T14:26:49.041Z,15.48
2023-01-19T14:29:19.426Z,16.33
2023-01-19T14:32:00.370Z,16.58
2023-01-19T14:34:45.421Z,17.85
2023-01-19T14:37:21.844Z,17.08
2023-01-19T14:39:52.892Z,16.45
2023-01-19T14:42:26.084Z,14.70
2023-01-19T14:44:56.228Z,15.75
2023-01-19T14:47:29.807Z,15.43
2023-01-19T14:50:02.315Z,17.00
2023-01-19T14:52:42.166Z,19.95
2023-01-19T14:57:55.728Z,15.70
2023-01-19T15:00:23.751Z,18.45
2023-01-19T15:02:51.245Z,17.95
2023-01-19T15:05:19.384Z,15.73
2023-01-19T15:07:47.540Z,17.73
2023-01-19T15:10:23.825Z,20.08
2023-01-19T15:12:54.251Z,16.45
2023-01-19T15:15:29.539Z,16.25
2023-01-19T15:17:58.592Z,20.65
2023-01-19T15:20:26.191Z,17.27
2023-01-19T15:22:53.752Z,19.35
2023-01-19T15:25:25.814Z,16.60
2023-01-19T15:27:57.931Z,18.23
2023-01-19T15:30:29.738Z,17.08
2023-01-19T15:32:58.967Z,17.00
2023-01-19T15:35:26.727Z,17.42
2023-01-19T15:37:54.685Z,19.50
2023-01-19T15:40:23.412Z,18.52
2023-01-19T15:42:51.032Z,21.47
2023-01-19T15:45:18.509Z,19.33
2023-01-19T15:47:46.061Z,20.30
2023-01-19T15:50:13.642Z,18.77
2023-01-19T15:52:41.198Z,20.60
2023-01-19T15:55:11.901Z,19.45
2023-01-19T15:57:39.417Z,21.60
2023-01-19T16:00:07.944Z,19.33
2023-01-19T16:02:37.940Z,27.58
2023-01-19T16:05:06.209Z,21.63
2023-01-19T16:07:34.708Z,20.27
2023-01-19T16:10:02.396Z,21.30
2023-01-19T16:12:30.144Z,23.60
2023-01-19T16:14:57.611Z,23.15
2023-01-19T16:17:25.133Z,21.25
2023-01-19T16:19:52.619Z,23.55
2023-01-19T16:22:20.154Z,20.80
2023-01-19T16:24:47.705Z,20.55
2023-01-19T16:27:15.211Z,22.10
2023-01-19T16:29:42.669Z,21.42
2023-01-19T16:32:10.151Z,21.40
2023-01-19T16:34:37.648Z,21.98
2023-01-19T16:37:05.178Z,23.02
2023-01-19T16:39:32.791Z,21.13
2023-01-19T16:42:00.588Z,20.55
2023-01-19T16:44:28.234Z,21.42
2023-01-19T16:46:55.774Z,23.38
2023-01-19T16:49:26.804Z,21.42
2023-01-19T16:51:56.215Z,25.02
2023-01-19T16:54:26.189Z,20.75
2023-01-19T16:56:55.548Z,22.67
2023-01-19T16:59:23.440Z,21.02
2023-01-19T17:01:52.142Z,27.83
2023-01-19T17:04:22.055Z,19.20
2023-01-19T17:06:50.234Z,26.40
2023-01-19T17:09:18.002Z,29.38
2023-01-19T17:11:46.174Z,22.50
2023-01-19T17:14:16.684Z,24.20
2023-01-19T17:16:44.359Z,22.75
2023-01-19T17:19:17.444Z,23.20
2023-01-19T17:21:48.707Z,21.90
2023-01-19T17:24:17.285Z,22.77
2023-01-19T17:26:46.066Z,22.73
2023-01-19T17:29:13.553Z,23.83
2023-01-19T17:31:41.191Z,21.85
2023-01-19T17:34:09.934Z,23.85
2023-01-19T17:36:38.068Z,21.17
2023-01-19T17:39:08.297Z,22.90
2023-01-19T17:41:36.133Z,21.10
2023-01-19T17:44:05.567Z,21.75
2023-01-19T17:46:36.698Z,22.23
2023-01-19T17:49:05.940Z,27.38
2023-01-19T17:51:34.160Z,23.52
2023-01-19T17:54:01.993Z,21.55
2023-01-19T17:56:33.188Z,25.48
2023-01-19T17:59:00.736Z,21.25
2023-01-19T18:01:30.978Z,22.92
2023-01-19T18:03:59.262Z,21.25
2023-01-19T18:06:27.089Z,26.10
2023-01-19T18:08:54.601Z,24.55
2023-01-19T18:11:22.386Z,25.85
2023-01-19T18:13:50.823Z,27.30
2023-01-19T18:16:29.072Z,28.77
2023-01-19T18:18:57.528Z,27.25
2023-01-19T18:21:28.876Z,27.88
2023-01-19T18:24:04.989Z,25.90
2023-01-19T18:26:34.781Z,26.25
2023-01-19T18:29:02.463Z,23.75
2023-01-19T18:31:30.431Z,26.65
2023-01-19T18:33:58.233Z,25.77
2023-01-19T18:36:25.895Z,27.95
2023-01-19T18:38:53.782Z,23.70
2023-01-19T18:41:22.131Z,24.98
2023-01-19T18:43:50.274Z,21.67
2023-01-19T18:46:19.116Z,23.05
2023-01-19T18:48:46.678Z,21.48
2023-01-19T18:51:15.874Z,22.45
2023-01-19T18:53:43.899Z,23.05
2023-01-19T18:56:14.358Z,21.58
2023-01-19T18:58:44.919Z,24.30
2023-01-19T19:01:24.603Z,21.50
2023-01-19T19:03:52.991Z,30.90
2023-01-19T19:06:21.466Z,30.48
2023-01-19T19:08:50.972Z,32.45
2023-01-19T19:11:20.180Z,23.45
2023-01-19T19:14:00.610Z,20.90
2023-01-19T19:16:28.946Z,30.88
2023-01-19T19:18:56.966Z,23.45
2023-01-19T19:21:25.571Z,24.98
2023-01-19T19:23:57.779Z,23.00
2023-01-19T19:26:28.446Z,23.60
2023-01-19T19:28:56.510Z,36.97
2023-01-19T19:31:26.235Z,24.33
2023-01-19T19:33:55.849Z,22.15
2023-01-19T19:36:24.455Z,26.75
2023-01-19T19:38:52.076Z,23.77
2023-01-19T19:41:27.089Z,30.02
2023-01-19T19:43:55.741Z,24.63
2023-01-19T19:46:24.556Z,26.48
2023-01-19T19:48:53.057Z,22.38
2023-01-19T19:51:27.223Z,27.50
2023-01-19T19:53:56.897Z,25.52
2023-01-19T19:58:54.685Z,35.75
2023-01-19T20:03:55.637Z,25.23
2023-01-19T20:06:25.063Z,29.33
2023-01-19T20:08:54.423Z,36.30
2023-01-19T20:11:25.447Z,27.83
2023-01-19T20:13:53.311Z,25.90
2023-01-19T20:16:23.191Z,25.83
2023-01-19T20:18:54.258Z,23.17
2023-01-19T20:21:25.690Z,29.40
2023-01-19T20:23:54.950Z,27.17
2023-01-19T20:26:26.557Z,30.55
2023-01-19T20:28:56.750Z,30.45
2023-01-19T20:35:28.166Z,28.98
2023-01-19T20:37:55.875Z,28.45
2023-01-19T20:40:23.455Z,33.47
2023-01-19T20:42:50.991Z,25.20
2023-01-19T20:45:19.753Z,29.17
2023-01-19T20:47:47.297Z,27.43
2023-01-19T20:50:14.812Z,31.70
2023-01-19T20:52:42.296Z,26.90
2023-01-19T20:55:10.557Z,26.88
2023-01-19T20:57:38.124Z,27.88
2023-01-19T21:00:06.266Z,29.15
2023-01-19T21:02:33.944Z,26.20
2023-01-19T21:05:01.500Z,30.83
2023-01-19T21:07:29.401Z,28.77
2023-01-19T21:09:56.939Z,26.75
2023-01-19T21:12:24.551Z,24.80
2023-01-19T21:14:52.077Z,27.23
2023-01-19T21:17:19.579Z,30.30
2023-01-19T21:19:47.195Z,33.08
2023-01-19T21:22:14.893Z,26.80
2023-01-19T21:24:44.449Z,26.73
2023-01-19T21:29:40.908Z,30.92
2023-01-19T21:32:08.472Z,27.77
2023-01-19T21:34:36.018Z,25.90
2023-01-19T21:37:03.522Z,24.40
2023-01-19T21:39:31.090Z,26.15
2023-01-19T21:41:58.657Z,32.20
2023-01-19T21:44:26.324Z,28.85
2023-01-19T21:46:55.584Z,32.90
2023-01-19T21:49:23.111Z,28.13
2023-01-19T21:51:50.769Z,30.45
2023-01-19T21:54:18.976Z,28.00
2023-01-19T21:56:46.557Z,27.08
2023-01-19T21:59:15.568Z,30.48
2023-01-19T22:01:45.217Z,29.77
2023-01-19T22:06:58.806Z,32.58
2023-01-19T22:09:26.331Z,34.20
2023-01-19T22:11:53.918Z,29.65
2023-01-19T22:14:21.478Z,32.75
2023-01-19T22:16:49.034Z,32.38
2023-01-19T22:19:16.538Z,32.25
2023-01-19T22:21:44.109Z,32.30
2023-01-19T22:24:12.918Z,28.35
2023-01-19T22:26:40.455Z,31.60
2023-01-19T22:29:17.612Z,34.00
2023-01-19T22:31:45.909Z,32.45
2023-01-19T22:34:14.566Z,29.80
2023-01-19T22:36:42.149Z,31.13
2023-01-19T22:39:12.057Z,33.42
2023-01-19T22:41:45.003Z,33.72
2023-01-19T22:44:15.111Z,30.55
2023-01-19T22:46:43.414Z,30.95
2023-01-19T22:49:13.446Z,27.67
2023-01-19T22:51:41.397Z,34.40
2023-01-19T22:54:09.147Z,37.65
2023-01-19T22:56:38.821Z,27.20
2023-01-19T22:59:06.805Z,28.13
2023-01-19T23:01:40.194Z,28.63
2023-01-19T23:04:14.287Z,32.10
2023-01-19T23:06:42.348Z,29.67
2023-01-19T23:09:14.771Z,29.63
2023-01-19T23:11:44.029Z,27.60
2023-01-19T23:14:17.764Z,34.25
2023-01-19T23:16:47.309Z,32.22
2023-01-19T23:24:12.717Z,29.33
2023-01-19T23:26:40.361Z,33.03
2023-01-19T23:29:12.323Z,29.65
2023-01-19T23:31:44.120Z,28.83
2023-01-19T23:34:12.580Z,29.27
2023-01-19T23:36:41.940Z,35.63
2023-01-19T23:39:18.276Z,29.83
2023-01-19T23:41:46.401Z,34.22
2023-01-19T23:44:14.119Z,30.13
2023-01-19T23:46:41.914Z,32.30
2023-01-19T23:49:09.523Z,32.70
2023-01-19T23:51:37.065Z,31.65
2023-01-19T23:54:04.709Z,32.72
2023-01-19T23:56:35.265Z,33.80
2023-01-19T23:59:07.739Z,29.60
